Time;durP1;ratioP1;P1;durP2;ratioP2;P2;SDS_P1;SDS_P2;PMS_P1;PMS_P2;Temp;Humidity;BMP_temperature;BMP_pressure;BME280_temperature;BME280_humidity;BME280_pressure;Samples;Min_cycle;Max_cycle;Signal;HPM_P1;HPM_P2
2023/06/17 00:00:07;;;;;;;6.37;5.77;;;;;;;18.58;52.65;156137.13;5006620;28;20569;-82
2023/06/17 00:02:34;;;;;;;6.30;5.77;;;;;;;18.56;52.81;156133.19;4995234;28;20438;-82
2023/06/17 00:05:02;;;;;;;5.90;5.40;;;;;;;18.57;52.79;156135.84;4989178;28;20434;-81
2023/06/17 00:07:28;;;;;;;6.20;5.47;;;;;;;18.58;52.36;156138.44;5002565;28;20827;-81
2023/06/17 00:09:57;;;;;;;8.17;6.67;;;;;;;18.58;53.03;156138.44;4992446;28;20814;-81
2023/06/17 00:12:24;;;;;;;6.13;5.50;;;;;;;18.55;53.28;156130.63;5025277;28;20465;-82
2023/06/17 00:14:53;;;;;;;6.67;6.00;;;;;;;18.54;53.07;156128.00;4993582;28;20489;-81
2023/06/17 00:17:21;;;;;;;6.90;6.20;;;;;;;18.51;53.52;156120.19;5013462;28;20509;-82
2023/06/17 00:19:48;;;;;;;7.00;6.30;;;;;;;18.46;53.75;156105.81;4997190;28;20521;-81
2023/06/17 00:22:14;;;;;;;5.47;4.90;;;;;;;18.43;53.88;156097.97;5012589;28;20429;-81
2023/06/17 00:24:41;;;;;;;6.27;5.77;;;;;;;18.35;54.06;156077.19;5011497;28;20469;-81
2023/06/17 00:27:09;;;;;;;8.03;7.10;;;;;;;18.32;53.91;156069.38;4995708;28;20447;-81
2023/06/17 00:29:36;;;;;;;7.47;6.50;;;;;;;18.33;54.12;156071.94;4989375;28;20923;-81
2023/06/17 00:32:02;;;;;;;6.93;6.30;;;;;;;18.34;54.15;156075.88;4996697;28;20459;-81
2023/06/17 00:34:29;;;;;;;7.07;6.37;;;;;;;18.35;53.84;156078.44;5001550;28;20886;-81
2023/06/17 00:36:56;;;;;;;7.63;6.87;;;;;;;18.31;53.96;156068.06;5008071;28;20449;-82
2023/06/17 00:39:23;;;;;;;8.20;6.80;;;;;;;18.34;54.16;156074.56;4991370;28;20835;-81
2023/06/17 00:41:50;;;;;;;6.80;6.03;;;;;;;18.33;54.21;156071.94;4989317;28;20557;-81
2023/06/17 00:44:18;;;;;;;7.50;6.40;;;;;;;18.29;54.31;156061.53;4991740;28;20445;-81
2023/06/17 00:46:47;;;;;;;6.73;6.07;;;;;;;18.21;54.15;156043.28;5009521;28;21014;-81
2023/06/17 00:49:13;;;;;;;6.90;6.30;;;;;;;18.15;54.09;156027.69;4990668;28;20489;-81
2023/06/17 00:51:40;;;;;;;6.90;6.30;;;;;;;18.13;54.16;156022.50;5022687;28;20926;-81
2023/06/17 00:54:09;;;;;;;7.50;6.80;;;;;;;18.10;54.44;156013.34;5007605;28;20454;-81
2023/06/17 00:56:37;;;;;;;8.80;6.37;;;;;;;18.07;54.68;156005.53;5020270;28;20450;-81
2023/06/17 00:59:05;;;;;;;7.10;6.50;;;;;;;18.01;54.70;155991.22;4973196;28;20484;-82
2023/06/17 01:01:35;;;;;;;6.70;6.10;;;;;;;17.98;54.39;155983.38;4987474;28;20545;-81
2023/06/17 01:04:04;;;;;;;6.87;6.10;;;;;;;17.96;54.38;155978.19;4974080;28;20533;-82
2023/06/17 01:06:35;;;;;;;7.43;6.73;;;;;;;17.97;54.36;155979.50;5017709;28;20438;-82
2023/06/17 01:09:05;;;;;;;6.70;6.10;;;;;;;17.96;54.39;155978.19;5021369;28;20462;-82
2023/06/17 01:11:32;;;;;;;6.43;5.93;;;;;;;17.96;54.15;155978.19;4990824;28;20473;-82
2023/06/17 01:13:59;;;;;;;6.90;6.27;;;;;;;17.98;54.09;155983.38;4989938;28;20461;-81
2023/06/17 01:16:26;;;;;;;6.80;6.03;;;;;;;17.98;53.55;155983.38;4971221;28;20451;-82
2023/06/17 01:18:56;;;;;;;9.13;6.87;;;;;;;17.97;54.17;155980.81;4987763;28;20462;-82
2023/06/17 01:21:22;;;;;;;7.23;6.57;;;;;;;17.94;54.16;155971.69;5003908;28;20493;-82
2023/06/17 01:23:52;;;;;;;6.10;5.60;;;;;;;17.93;53.91;155970.38;4987396;28;20590;-82
2023/06/17 01:26:21;;;;;;;7.77;7.07;;;;;;;17.96;54.61;155978.19;4956670;28;20445;-82
2023/06/17 01:28:53;;;;;;;7.30;6.60;;;;;;;17.94;54.30;155973.00;4995418;28;21002;-82
2023/06/17 01:31:19;;;;;;;7.83;7.13;;;;;;;17.92;54.05;155967.78;5022892;28;20446;-82
2023/06/17 01:33:46;;;;;;;8.57;7.70;;;;;;;17.89;54.07;155959.97;5006818;28;20548;-82
2023/06/17 01:36:15;;;;;;;6.90;6.07;;;;;;;17.83;53.85;155944.34;5010236;28;20546;-82
2023/06/17 01:38:44;;;;;;;7.83;7.13;;;;;;;17.79;54.71;155933.91;4998346;28;20475;-82
2023/06/17 01:41:15;;;;;;;7.03;6.33;;;;;;;17.73;54.63;155918.31;4990824;28;20477;-82
2023/06/17 01:43:44;;;;;;;7.50;6.80;;;;;;;17.67;54.56;155901.38;5006649;28;20460;-82
2023/06/17 01:46:12;;;;;;;7.53;6.83;;;;;;;17.58;54.72;155880.53;5012002;28;21323;-82
2023/06/17 01:48:39;;;;;;;7.07;6.47;;;;;;;17.53;55.74;155866.22;5024496;28;20446;-82
2023/06/17 01:51:06;;;;;;;7.80;7.07;;;;;;;17.53;55.71;155866.22;5029792;28;20468;-82
2023/06/17 01:53:34;;;;;;;7.97;7.20;;;;;;;17.52;55.08;155863.59;5013674;28;20469;-82
2023/06/17 01:56:00;;;;;;;8.13;7.30;;;;;;;17.52;55.45;155864.91;4989572;28;20453;-82
2023/06/17 01:58:27;;;;;;;8.40;7.53;;;;;;;17.47;55.40;155850.56;4995611;28;20980;-82
2023/06/17 02:00:55;;;;;;;8.00;7.40;;;;;;;17.46;55.83;155847.94;5022551;28;21008;-82
2023/06/17 02:03:21;;;;;;;8.30;7.20;;;;;;;17.45;56.14;155845.34;5001053;28;20482;-82
2023/06/17 02:05:50;;;;;;;8.13;7.33;;;;;;;17.46;55.54;155847.94;4986438;28;20473;-82
2023/06/17 02:08:16;;;;;;;8.13;7.40;;;;;;;17.46;56.32;155847.94;4970708;28;20485;-82
2023/06/17 02:10:43;;;;;;;8.40;7.67;;;;;;;17.46;55.49;155849.25;5001443;28;20500;-82
2023/06/17 02:13:09;;;;;;;7.60;6.90;;;;;;;17.43;56.03;155840.13;5003750;28;20461;-82
2023/06/17 02:15:38;;;;;;;7.40;6.80;;;;;;;17.40;56.13;155833.63;5005360;28;20532;-82
2023/06/17 02:18:06;;;;;;;9.33;7.87;;;;;;;17.34;55.60;155818.00;4978061;28;20456;-82
2023/06/17 02:20:33;;;;;;;8.33;7.53;;;;;;;17.29;56.57;155803.72;4987718;28;20560;-82
2023/06/17 02:22:59;;;;;;;8.13;7.33;;;;;;;17.24;56.77;155790.66;4991148;28;20450;-82
2023/06/17 02:25:26;;;;;;;7.47;6.77;;;;;;;17.20;57.08;155781.59;5005407;28;21064;-82
2023/06/17 02:27:52;;;;;;;7.73;6.93;;;;;;;17.16;57.21;155769.84;5004706;28;20496;-82
2023/06/17 02:30:22;;;;;;;9.40;7.60;;;;;;;17.09;58.19;155751.63;5004091;28;20553;-82
2023/06/17 02:32:48;;;;;;;8.67;7.37;;;;;;;17.05;57.88;155742.53;5022278;28;20434;-82
2023/06/17 02:35:16;;;;;;;8.17;7.37;;;;;;;17.00;57.69;155730.81;4989295;28;20532;-82
2023/06/17 02:37:44;;;;;;;7.67;6.97;;;;;;;16.96;57.93;155720.44;5019760;28;20985;-83
2023/06/17 02:40:11;;;;;;;9.97;7.83;;;;;;;16.96;58.24;155720.44;5017299;28;21012;-82
2023/06/17 02:42:38;;;;;;;7.67;6.97;;;;;;;16.92;58.47;155708.69;4986168;28;20446;-82
2023/06/17 02:45:07;;;;;;;8.30;7.50;;;;;;;16.85;58.97;155691.81;4971257;28;20470;-82
2023/06/17 02:47:33;;;;;;;8.13;7.33;;;;;;;16.85;58.93;155690.50;5004062;28;20468;-81
2023/06/17 02:50:02;;;;;;;9.30;8.20;;;;;;;16.81;59.02;155680.09;4993332;28;20485;-81
2023/06/17 02:52:34;;;;;;;9.57;7.20;;;;;;;16.75;59.29;155665.78;4987745;28;20544;-81
2023/06/17 02:55:02;;;;;;;8.17;7.30;;;;;;;16.72;58.80;155656.66;5021165;28;20461;-82
2023/06/17 02:57:29;;;;;;;8.80;8.00;;;;;;;16.72;59.07;155657.97;5001792;28;20458;-81
2023/06/17 02:59:56;;;;;;;8.67;7.30;;;;;;;16.74;59.24;155661.88;5019349;28;20485;-81
2023/06/17 03:02:22;;;;;;;9.17;8.37;;;;;;;16.70;59.05;155652.78;4995972;28;20516;-82
2023/06/17 03:04:53;;;;;;;8.70;7.80;;;;;;;16.62;59.37;155630.66;5019206;28;21034;-78
2023/06/17 03:07:20;;;;;;;8.03;7.30;;;;;;;16.57;59.75;155617.66;4971347;28;20458;-78
2023/06/17 03:09:49;;;;;;;10.00;8.43;;;;;;;16.52;60.06;155605.88;4982315;28;20544;-79
2023/06/17 03:12:15;;;;;;;7.97;7.17;;;;;;;16.51;60.48;155603.28;5040772;28;20547;-80
2023/06/17 03:14:42;;;;;;;8.30;7.57;;;;;;;16.52;59.96;155605.88;5022089;28;20442;-80
2023/06/17 03:17:14;;;;;;;8.73;7.90;;;;;;;16.52;60.52;155605.88;4980106;28;20473;-78
2023/06/17 03:19:42;;;;;;;8.90;8.00;;;;;;;16.51;60.76;155601.97;4968677;28;20517;-78
2023/06/17 03:22:08;;;;;;;8.93;8.03;;;;;;;16.44;61.22;155585.09;5003712;28;20826;-80
2023/06/17 03:24:38;;;;;;;7.97;7.27;;;;;;;16.41;61.48;155577.28;4968441;28;20469;-80
2023/06/17 03:27:12;;;;;;;8.70;7.90;;;;;;;16.37;62.20;155568.16;4982534;28;20466;-79
2023/06/17 03:29:38;;;;;;;8.57;7.80;;;;;;;16.31;62.92;155552.56;5021910;28;20609;-80
2023/06/17 03:32:07;;;;;;;9.87;7.87;;;;;;;16.28;62.57;155543.47;4999712;28;20983;-80
2023/06/17 03:34:33;;;;;;;8.90;8.10;;;;;;;16.28;62.83;155543.47;4981533;28;20457;-80
2023/06/17 03:37:05;;;;;;;9.50;8.40;;;;;;;16.23;63.42;155530.47;4972751;28;20548;-80
2023/06/17 03:39:32;;;;;;;9.57;8.67;;;;;;;16.17;63.33;155516.16;4972209;28;20449;-80
2023/06/17 03:41:58;;;;;;;8.60;7.80;;;;;;;16.12;63.70;155501.88;4974743;28;20462;-80
2023/06/17 03:44:27;;;;;;;9.87;8.80;;;;;;;16.10;64.33;155496.63;5005297;28;20843;-80
2023/06/17 03:46:56;;;;;;;8.80;8.07;;;;;;;16.04;64.75;155482.38;4996371;28;20457;-80
2023/06/17 03:49:23;;;;;;;8.20;7.43;;;;;;;15.98;65.12;155465.44;4993359;28;20484;-80
2023/06/17 03:51:50;;;;;;;9.20;8.30;;;;;;;15.93;65.21;155453.75;4989351;28;20839;-79
2023/06/17 03:54:16;;;;;;;9.97;8.97;;;;;;;15.92;65.68;155449.81;5012793;28;20484;-79
2023/06/17 03:56:43;;;;;;;10.43;8.50;;;;;;;15.91;65.42;155447.25;5002388;28;20488;-79
2023/06/17 03:59:11;;;;;;;12.00;8.73;;;;;;;15.90;65.45;155444.63;5021027;28;20529;-79
2023/06/17 04:01:40;;;;;;;9.23;8.40;;;;;;;15.84;65.86;155431.63;5003935;28;20488;-80
2023/06/17 04:04:07;;;;;;;11.27;10.17;;;;;;;15.85;65.90;155432.94;4988987;28;20848;-80
2023/06/17 04:06:34;;;;;;;9.77;8.83;;;;;;;15.89;66.02;155442.00;4994678;28;20822;-79
2023/06/17 04:09:02;;;;;;;10.83;9.83;;;;;;;15.88;66.03;155439.44;4987696;28;20547;-79
2023/06/17 04:11:30;;;;;;;10.07;9.07;;;;;;;15.91;66.12;155448.56;4983085;28;20450;-80
2023/06/17 04:13:57;;;;;;;10.20;9.30;;;;;;;15.95;66.09;155457.63;5021530;28;20461;-80
2023/06/17 04:16:23;;;;;;;9.60;8.60;;;;;;;15.94;65.98;155456.31;4990114;28;20959;-79
2023/06/17 04:18:52;;;;;;;10.13;9.13;;;;;;;15.92;66.55;155449.81;5000533;28;20552;-79
2023/06/17 04:21:19;;;;;;;9.50;8.60;;;;;;;15.92;66.18;155451.13;4983772;28;20480;-80
2023/06/17 04:23:47;;;;;;;10.53;9.50;;;;;;;15.99;66.20;155469.31;4972519;28;20503;-80
2023/06/17 04:26:15;;;;;;;9.90;8.37;;;;;;;16.03;66.70;155479.75;5007576;28;20826;-80
2023/06/17 04:28:42;;;;;;;9.23;8.43;;;;;;;16.02;66.51;155475.88;4984800;28;20572;-80
2023/06/17 04:31:10;;;;;;;10.13;9.13;;;;;;;16.06;66.67;155486.25;4988407;28;20515;-80
2023/06/17 04:33:38;;;;;;;9.60;8.70;;;;;;;16.14;66.23;155508.38;5028394;28;21010;-80
2023/06/17 04:36:08;;;;;;;9.73;8.73;;;;;;;16.27;66.34;155540.84;5015838;28;20468;-80
2023/06/17 04:38:38;;;;;;;9.63;8.83;;;;;;;16.36;65.38;155564.28;5021066;28;20458;-79
2023/06/17 04:41:05;;;;;;;10.90;9.77;;;;;;;16.45;65.52;155587.66;4990584;28;20535;-80
2023/06/17 04:43:33;;;;;;;9.07;8.27;;;;;;;16.57;65.47;155618.97;5022784;28;20477;-80
2023/06/17 04:46:01;;;;;;;10.90;9.90;;;;;;;16.75;64.56;155665.78;5001278;28;20556;-80
2023/06/17 04:48:29;;;;;;;10.17;9.23;;;;;;;16.85;64.21;155691.81;4997595;28;20535;-81
2023/06/17 04:50:56;;;;;;;9.47;8.57;;;;;;;16.98;63.47;155725.63;4988484;28;20458;-79
2023/06/17 04:53:27;;;;;;;10.07;9.17;;;;;;;17.09;63.85;155751.63;5015540;28;20790;-80
2023/06/17 04:55:54;;;;;;;11.53;10.30;;;;;;;17.17;63.36;155772.47;5008471;28;20462;-79
2023/06/17 04:58:21;;;;;;;12.80;10.07;;;;;;;17.31;63.06;155808.91;4990316;28;20562;-80
2023/06/17 05:00:51;;;;;;;10.23;9.23;;;;;;;17.54;62.23;155868.84;5000099;28;20846;-80
2023/06/17 05:03:22;;;;;;;9.67;8.77;;;;;;;17.66;61.72;155898.78;4989447;28;20488;-79
2023/06/17 05:05:51;;;;;;;10.93;9.83;;;;;;;17.79;61.75;155933.91;4986973;28;20989;-80
2023/06/17 05:08:18;;;;;;;10.00;9.10;;;;;;;18.02;61.39;155992.53;5005290;28;20815;-80
2023/06/17 05:10:46;;;;;;;12.13;10.33;;;;;;;18.21;60.32;156043.28;4977661;28;20825;-79
2023/06/17 05:13:13;;;;;;;11.83;10.63;;;;;;;18.41;59.97;156094.09;5002896;28;20454;-78
2023/06/17 05:15:40;;;;;;;12.87;10.70;;;;;;;18.58;59.43;156137.13;5002697;28;20445;-79
2023/06/17 05:18:06;;;;;;;11.60;10.40;;;;;;;18.73;59.01;156176.22;4985728;28;20469;-80
2023/06/17 05:20:33;;;;;;;11.13;10.13;;;;;;;18.93;58.33;156227.03;4986480;28;20501;-80
2023/06/17 05:22:59;;;;;;;11.57;10.37;;;;;;;19.14;57.91;156281.78;4986519;28;21073;-78
2023/06/17 05:25:26;;;;;;;11.40;10.30;;;;;;;19.32;57.17;156328.69;4995866;28;20462;-78
2023/06/17 05:27:54;;;;;;;11.10;10.10;;;;;;;19.47;56.49;156366.50;4986659;28;20453;-79
2023/06/17 05:30:26;;;;;;;11.80;10.70;;;;;;;19.59;56.18;156397.81;5002468;28;20450;-79
2023/06/17 05:32:56;;;;;;;11.87;10.70;;;;;;;19.77;56.03;156444.75;5002102;28;20477;-80
2023/06/17 05:35:23;;;;;;;14.40;10.13;;;;;;;19.98;55.28;156499.50;4977440;28;20830;-80
2023/06/17 05:37:50;;;;;;;11.17;10.03;;;;;;;20.13;54.75;156538.63;4986890;28;20489;-79
2023/06/17 05:40:17;;;;;;;11.50;10.50;;;;;;;20.31;54.70;156585.63;5001705;28;20461;-80
2023/06/17 05:42:44;;;;;;;10.10;9.23;;;;;;;20.52;53.90;156640.41;5000099;28;20545;-80
2023/06/17 05:45:13;;;;;;;14.33;9.63;;;;;;;20.65;53.09;156674.31;5000288;28;21040;-80
2023/06/17 05:47:40;;;;;;;10.50;9.60;;;;;;;20.82;52.07;156716.06;4984316;28;20462;-79
2023/06/17 05:50:07;;;;;;;10.53;9.47;;;;;;;20.93;51.94;156744.78;5017777;28;20464;-80
2023/06/17 05:52:34;;;;;;;9.83;9.00;;;;;;;21.07;51.35;156782.69;5018181;28;20454;-81
2023/06/17 05:55:01;;;;;;;9.90;9.10;;;;;;;21.22;51.04;156820.53;5003876;28;20460;-81
2023/06/17 05:57:28;;;;;;;10.73;9.73;;;;;;;21.40;50.31;156866.19;5019513;28;20450;-80
2023/06/17 05:59:55;;;;;;;10.90;9.90;;;;;;;21.50;50.21;156893.59;5002086;28;20457;-81
2023/06/17 06:02:22;;;;;;;11.37;10.10;;;;;;;21.64;49.23;156930.16;5002463;28;20481;-79
2023/06/17 06:04:49;;;;;;;10.80;9.70;;;;;;;21.75;49.65;156958.91;4982496;28;20897;-80
2023/06/17 06:07:16;;;;;;;10.00;9.00;;;;;;;21.88;49.28;156990.25;5001497;28;20541;-81
2023/06/17 06:09:43;;;;;;;10.40;9.50;;;;;;;21.93;49.03;157003.31;5000891;28;20461;-80
2023/06/17 06:12:10;;;;;;;11.20;10.10;;;;;;;21.92;49.23;157000.72;5016502;28;20473;-79
2023/06/17 06:14:37;;;;;;;10.77;9.83;;;;;;;21.97;49.45;157015.09;4985361;28;20481;-81
2023/06/17 06:17:05;;;;;;;11.13;10.07;;;;;;;22.15;49.04;157060.78;4984829;28;20458;-80
2023/06/17 06:19:33;;;;;;;10.70;9.47;;;;;;;22.24;49.09;157085.59;5014967;28;20520;-82
2023/06/17 06:21:59;;;;;;;11.20;10.13;;;;;;;22.38;48.58;157120.84;5018852;28;20477;-84
2023/06/17 06:24:28;;;;;;;10.57;9.67;;;;;;;22.56;47.76;157167.88;4988342;28;20450;-85
2023/06/17 06:26:54;;;;;;;10.73;9.63;;;;;;;22.62;47.90;157183.56;4986162;28;20932;-85
2023/06/17 06:29:21;;;;;;;10.90;9.80;;;;;;;22.70;48.04;157204.50;5000175;28;20488;-84
2023/06/17 06:31:48;;;;;;;11.10;10.10;;;;;;;22.54;48.47;157161.34;4975180;28;21026;-84
2023/06/17 06:34:17;;;;;;;9.67;8.77;;;;;;;22.44;48.62;157137.84;4987043;28;20480;-84
2023/06/17 06:36:45;;;;;;;11.43;10.27;;;;;;;22.56;48.62;157167.88;5002738;28;20853;-83
2023/06/17 06:39:12;;;;;;;10.10;9.20;;;;;;;22.63;48.60;157186.25;5003464;28;20553;-83
2023/06/17 06:41:39;;;;;;;12.10;10.17;;;;;;;22.84;48.30;157241.13;4986992;28;20482;-83
2023/06/17 06:44:25;;;;;;;10.10;9.20;;;;;;;23.02;48.61;157286.81;4971099;28;20468;-86
2023/06/17 06:46:55;;;;;;;10.00;9.10;;;;;;;23.32;47.63;157365.25;4986970;28;20468;-84
2023/06/17 06:49:22;;;;;;;10.00;9.00;;;;;;;23.60;47.07;157437.16;5002301;28;20452;-84
2023/06/17 06:51:50;;;;;;;9.40;8.60;;;;;;;23.71;46.40;157465.94;4984217;28;20453;-84
2023/06/17 06:54:17;;;;;;;10.27;9.37;;;;;;;23.86;46.53;157505.16;4983420;28;20932;-84
2023/06/17 06:56:45;;;;;;;10.60;9.50;;;;;;;24.08;46.15;157562.75;4967292;28;20458;-85
2023/06/17 06:59:16;;;;;;;10.97;9.97;;;;;;;24.30;45.28;157617.66;4999369;28;20504;-86
2023/06/17 07:01:43;;;;;;;9.43;8.73;;;;;;;24.42;45.54;157650.34;4984376;28;21341;-83
2023/06/17 07:04:11;;;;;;;10.03;9.23;;;;;;;24.62;45.01;157701.38;4988470;28;20453;-84
2023/06/17 07:06:38;;;;;;;9.80;8.90;;;;;;;24.75;44.33;157735.41;4989459;28;20709;-84
2023/06/17 07:09:10;;;;;;;9.57;8.67;;;;;;;24.91;44.74;157777.31;4986613;28;20445;-84
2023/06/17 07:11:37;;;;;;;9.93;9.00;;;;;;;25.09;43.54;157823.09;4989383;28;20461;-83
2023/06/17 07:14:04;;;;;;;9.30;8.40;;;;;;;25.36;43.41;157893.78;5002040;28;20576;-85
2023/06/17 07:16:30;;;;;;;9.60;8.80;;;;;;;25.54;42.99;157940.94;4985103;28;20475;-84
2023/06/17 07:18:57;;;;;;;9.83;9.03;;;;;;;25.78;42.64;158003.78;5018929;28;20871;-84
2023/06/17 07:21:24;;;;;;;10.63;9.30;;;;;;;25.86;42.82;158024.72;4968258;28;20745;-84
2023/06/17 07:23:51;;;;;;;9.93;9.10;;;;;;;25.99;42.98;158057.44;4990526;28;20453;-84
2023/06/17 07:26:19;;;;;;;9.87;9.07;;;;;;;26.13;42.44;158092.84;4975065;28;20543;-84
2023/06/17 07:28:46;;;;;;;9.90;9.00;;;;;;;26.22;41.82;158117.72;4991028;28;20454;-84
2023/06/17 07:31:13;;;;;;;9.73;8.83;;;;;;;26.38;42.29;158159.63;4973012;28;20465;-84
2023/06/17 07:33:41;;;;;;;9.90;9.00;;;;;;;26.41;42.20;158167.47;4988784;28;21056;-84
2023/06/17 07:36:08;;;;;;;9.90;9.10;;;;;;;26.56;40.19;158206.75;4981596;28;21107;-84
2023/06/17 07:38:36;;;;;;;9.60;8.73;;;;;;;26.61;39.87;158219.84;4998464;28;20986;-84
2023/06/17 07:41:02;;;;;;;9.90;9.10;;;;;;;26.86;40.78;158282.78;4999287;28;20465;-82
2023/06/17 07:43:31;;;;;;;9.07;8.37;;;;;;;26.95;39.67;158307.66;4985840;28;21007;-82
2023/06/17 07:45:57;;;;;;;9.73;8.93;;;;;;;27.13;38.90;158353.53;4983120;28;20454;-83
2023/06/17 07:48:24;;;;;;;9.10;8.40;;;;;;;27.17;39.17;158364.00;5001349;28;20451;-83
2023/06/17 07:50:51;;;;;;;10.10;9.17;;;;;;;27.26;39.42;158386.28;4985825;28;20488;-82
2023/06/17 07:53:17;;;;;;;10.60;9.70;;;;;;;27.40;38.66;158424.38;5000869;28;20496;-82
2023/06/17 07:55:44;;;;;;;10.50;9.53;;;;;;;27.60;38.40;158476.75;4987553;28;20461;-83
2023/06/17 07:58:11;;;;;;;9.77;8.73;;;;;;;27.88;38.08;158547.56;5002924;28;20465;-82
2023/06/17 08:00:39;;;;;;;9.07;8.27;;;;;;;28.04;37.60;158589.56;4986361;28;20457;-83
2023/06/17 08:03:06;;;;;;;8.53;7.73;;;;;;;28.10;36.63;158605.25;5003160;28;20484;-82
2023/06/17 08:05:33;;;;;;;10.40;9.50;;;;;;;28.17;35.46;158623.66;4988763;28;20458;-82
2023/06/17 08:07:59;;;;;;;9.47;8.57;;;;;;;28.29;35.98;158655.09;5003615;28;21034;-83
2023/06/17 08:10:26;;;;;;;9.33;8.53;;;;;;;28.37;35.17;158676.06;4988536;28;20898;-82
2023/06/17 08:12:52;;;;;;;8.97;8.20;;;;;;;28.48;34.54;158704.94;5020407;28;20462;-83
2023/06/17 08:15:19;;;;;;;12.67;7.80;;;;;;;28.60;34.32;158736.38;4997114;28;20492;-82
2023/06/17 08:17:48;;;;;;;9.80;9.00;;;;;;;28.53;36.31;158718.03;4990110;28;20941;-83
2023/06/17 08:20:15;;;;;;;11.40;10.30;;;;;;;28.33;37.15;158665.56;5014647;28;20935;-82
2023/06/17 08:22:42;;;;;;;10.20;9.20;;;;;;;27.97;36.94;158572.44;4980682;28;20869;-82
2023/06/17 08:25:09;;;;;;;10.70;9.70;;;;;;;27.70;37.24;158501.66;4985858;28;20759;-82
2023/06/17 08:27:37;;;;;;;10.53;9.60;;;;;;;27.48;37.57;158444.00;5016741;28;20552;-82
2023/06/17 08:30:04;;;;;;;9.40;8.60;;;;;;;27.09;38.87;158343.03;4984514;28;20536;-82
2023/06/17 08:32:31;;;;;;;9.47;8.60;;;;;;;26.98;39.21;158314.25;4998085;28;20472;-82
2023/06/17 08:35:01;;;;;;;10.30;9.50;;;;;;;26.97;39.71;158312.94;4983549;28;20876;-82
2023/06/17 08:37:28;;;;;;;10.77;9.93;;;;;;;27.25;39.11;158383.66;5017291;28;20580;-82
2023/06/17 08:39:54;;;;;;;10.40;9.60;;;;;;;27.39;38.60;158420.34;4986195;28;20477;-82
2023/06/17 08:42:21;;;;;;;10.50;9.70;;;;;;;27.26;38.83;158386.28;4984435;28;20971;-82
2023/06/17 08:44:49;;;;;;;10.03;9.23;;;;;;;27.26;38.47;158387.59;4999324;28;20886;-83
2023/06/17 08:47:16;;;;;;;10.30;9.50;;;;;;;27.28;37.43;158392.84;4983620;28;20476;-82
2023/06/17 08:49:45;;;;;;;10.77;9.87;;;;;;;27.47;38.13;158441.38;4984511;28;20484;-82
2023/06/17 08:52:16;;;;;;;10.10;9.20;;;;;;;27.09;37.97;158343.03;5018384;28;20453;-83
2023/06/17 08:54:43;;;;;;;9.80;9.00;;;;;;;27.20;37.67;158373.19;4985464;28;20458;-83
2023/06/17 08:57:12;;;;;;;12.27;9.93;;;;;;;27.01;37.89;158322.06;5001516;28;20545;-83
2023/06/17 08:59:39;;;;;;;9.53;8.70;;;;;;;26.79;37.44;158264.47;5015666;28;20908;-82
2023/06/17 09:02:06;;;;;;;9.50;8.80;;;;;;;26.98;37.69;158315.53;4985572;28;20517;-83
2023/06/17 09:04:35;;;;;;;10.30;9.40;;;;;;;27.14;36.49;158357.44;4986086;28;21420;-82
2023/06/17 09:07:34;;;;;;;9.97;8.87;;;;;;;27.07;38.19;158337.81;4998583;28;20469;-82
2023/06/17 09:10:10;;;;;;;9.40;8.50;;;;;;;27.51;37.70;158453.16;4944197;28;20602;-82
2023/06/17 09:12:38;;;;;;;9.33;8.60;;;;;;;27.89;36.90;158551.47;4991413;28;20496;-82
2023/06/17 09:15:07;;;;;;;9.60;8.80;;;;;;;27.34;36.60;158408.56;4987515;28;20464;-82
2023/06/17 09:17:34;;;;;;;10.40;9.40;;;;;;;26.97;37.19;158312.94;4983066;28;20532;-82
2023/06/17 09:20:11;;;;;;;9.10;8.00;;;;;;;26.45;37.27;158176.66;5001462;28;20984;-82
2023/06/17 09:22:43;;;;;;;10.03;9.13;;;;;;;26.08;37.58;158080.97;4982406;28;20493;-82
2023/06/17 09:25:13;;;;;;;9.90;8.90;;;;;;;25.84;38.11;158019.44;4996233;28;20449;-82
2023/06/17 09:27:47;;;;;;;10.40;9.43;;;;;;;25.89;38.74;158031.25;4982254;28;20473;-82
2023/06/17 09:30:14;;;;;;;9.27;8.57;;;;;;;25.99;38.38;158057.44;5015003;28;20484;-83
2023/06/17 09:32:42;;;;;;;9.70;8.80;;;;;;;26.08;38.04;158080.97;5001980;28;20480;-82
2023/06/17 09:35:13;;;;;;;9.13;8.30;;;;;;;26.11;37.94;158088.84;5001882;28;20816;-82
2023/06/17 09:37:40;;;;;;;10.60;8.57;;;;;;;26.29;38.18;158136.03;4998949;28;20564;-82
2023/06/17 09:40:09;;;;;;;9.13;8.33;;;;;;;26.48;37.10;158184.47;4984478;28;20508;-82
2023/06/17 09:42:38;;;;;;;8.37;7.60;;;;;;;26.68;37.12;158235.59;4982799;28;20492;-82
2023/06/17 09:45:07;;;;;;;8.67;7.87;;;;;;;26.71;35.78;158243.44;4984108;28;20886;-81
2023/06/17 09:47:34;;;;;;;7.97;7.27;;;;;;;26.76;35.12;158256.53;4985027;28;20463;-81
2023/06/17 09:50:04;;;;;;;7.90;7.10;;;;;;;26.88;35.13;158289.34;5018290;28;20969;-81
2023/06/17 09:52:32;;;;;;;6.97;6.37;;;;;;;27.31;33.54;158399.38;4984410;28;21014;-82
2023/06/17 09:54:59;;;;;;;7.30;6.60;;;;;;;27.57;31.74;158468.91;5001376;28;20461;-81
2023/06/17 09:57:31;;;;;;;7.90;7.10;;;;;;;27.39;31.89;158420.34;4966692;28;20461;-82
2023/06/17 09:59:59;;;;;;;8.80;8.00;;;;;;;26.97;33.75;158311.63;5000821;28;20528;-82
2023/06/17 10:02:26;;;;;;;8.50;7.70;;;;;;;26.57;33.79;158209.41;5000907;28;20984;-82
2023/06/17 10:04:53;;;;;;;7.73;6.93;;;;;;;26.56;34.92;158206.75;4983513;28;20825;-82
2023/06/17 10:07:21;;;;;;;8.93;7.13;;;;;;;26.58;35.03;158210.72;4983696;28;20559;-81
2023/06/17 10:09:47;;;;;;;7.63;7.03;;;;;;;26.22;35.37;158117.72;4987081;28;20520;-81
2023/06/17 10:12:15;;;;;;;8.13;7.43;;;;;;;25.75;35.53;157994.59;5017100;28;20976;-82
2023/06/17 10:14:45;;;;;;;8.03;7.33;;;;;;;25.64;35.00;157967.09;5002100;28;20511;-81
2023/06/17 10:17:16;;;;;;;6.97;6.43;;;;;;;25.70;34.77;157981.50;4999723;28;20477;-81
2023/06/17 10:19:46;;;;;;;7.67;6.97;;;;;;;25.91;33.69;158037.81;5002018;28;20487;-81
2023/06/17 10:22:17;;;;;;;6.70;6.17;;;;;;;26.14;33.56;158095.44;5002585;28;20864;-81
2023/06/17 10:24:44;;;;;;;7.13;6.43;;;;;;;26.39;32.40;158162.25;4986034;28;20461;-81
2023/06/17 10:27:10;;;;;;;8.10;7.27;;;;;;;26.41;32.97;158166.16;5017464;28;20441;-81
2023/06/17 10:29:42;;;;;;;7.10;6.50;;;;;;;26.50;32.98;158191.03;5017277;28;20575;-82
2023/06/17 10:32:20;;;;;;;6.40;5.90;;;;;;;26.67;31.96;158232.94;4986461;28;20445;-82
2023/06/17 10:35:09;;;;;;;7.20;6.67;;;;;;;26.90;32.63;158293.28;4984527;28;21018;-82
2023/06/17 10:37:39;;;;;;;6.70;6.10;;;;;;;27.20;32.09;158373.19;4999912;28;20477;-81
2023/06/17 10:40:22;;;;;;;6.90;6.40;;;;;;;27.43;31.57;158432.19;4985893;28;20808;-82
2023/06/17 10:43:16;;;;;;;7.13;6.50;;;;;;;27.60;30.97;158475.44;5000065;28;20473;-82
2023/06/17 10:45:51;;;;;;;6.70;6.20;;;;;;;26.78;32.34;158261.81;4983908;28;20851;-81
2023/06/17 10:48:23;;;;;;;7.43;6.70;;;;;;;26.51;32.42;158193.66;4999224;28;20548;-82
2023/06/17 10:50:54;;;;;;;7.17;6.57;;;;;;;26.75;32.88;158253.91;4985529;28;20460;-82
2023/06/17 10:53:29;;;;;;;7.57;6.97;;;;;;;26.78;32.77;158261.81;4986768;28;21098;-81
2023/06/17 10:55:57;;;;;;;7.37;6.70;;;;;;;26.78;32.63;158261.81;4986653;28;22175;-82
2023/06/17 10:58:28;;;;;;;7.27;6.70;;;;;;;26.92;32.74;158299.84;5017369;28;20442;-82
2023/06/17 11:01:02;;;;;;;7.37;6.77;;;;;;;27.24;32.13;158381.06;4987756;28;20492;-82
2023/06/17 11:03:30;;;;;;;6.77;6.03;;;;;;;27.38;32.26;158419.03;4986144;28;20563;-82
2023/06/17 11:06:01;;;;;;;7.47;6.73;;;;;;;27.54;31.94;158459.69;4985625;28;20508;-82
2023/06/17 11:08:29;;;;;;;7.30;6.60;;;;;;;27.59;30.86;158474.13;5015229;28;21004;-82
2023/06/17 11:11:06;;;;;;;6.53;5.93;;;;;;;27.68;31.34;158497.75;4985929;28;20458;-80
2023/06/17 11:13:33;;;;;;;6.93;6.33;;;;;;;27.43;31.64;158430.91;4983197;28;20461;-79
2023/06/17 11:16:00;;;;;;;7.27;6.67;;;;;;;27.37;30.92;158416.44;4985621;28;21084;-81
2023/06/17 11:18:26;;;;;;;6.77;6.17;;;;;;;27.41;30.93;158426.94;5015429;28;20457;-81
2023/06/17 11:20:54;;;;;;;6.53;5.90;;;;;;;27.37;31.04;158415.13;4984926;28;20489;-81
2023/06/17 11:23:20;;;;;;;7.13;6.53;;;;;;;27.41;30.94;158426.94;4984352;28;20923;-80
2023/06/17 11:25:51;;;;;;;7.27;6.10;;;;;;;27.22;29.63;158375.81;5000276;28;20469;-81